sensor_id;sensor_type;location;lat;lon;timestamp;temperature;humidity
34989;DHT22;21192;40.182;44.516;2023-06-14T00:00:51;22.20;62.30
34989;DHT22;21192;40.182;44.516;2023-06-14T00:03:18;22.20;62.20
34989;DHT22;21192;40.182;44.516;2023-06-14T00:05:47;22.20;62.20
34989;DHT22;21192;40.182;44.516;2023-06-14T00:08:14;22.30;62.10
34989;DHT22;21192;40.182;44.516;2023-06-14T00:10:40;22.20;61.90
34989;DHT22;21192;40.182;44.516;2023-06-14T00:13:10;22.30;61.90
34989;DHT22;21192;40.182;44.516;2023-06-14T00:15:35;22.40;61.90
34989;DHT22;21192;40.182;44.516;2023-06-14T00:18:02;22.40;61.70
34989;DHT22;21192;40.182;44.516;2023-06-14T00:20:29;22.40;61.50
34989;DHT22;21192;40.182;44.516;2023-06-14T00:22:56;22.50;61.40
34989;DHT22;21192;40.182;44.516;2023-06-14T00:25:23;22.50;61.20
34989;DHT22;21192;40.182;44.516;2023-06-14T00:27:51;22.60;61.00
34989;DHT22;21192;40.182;44.516;2023-06-14T00:30:17;22.60;60.80
34989;DHT22;21192;40.182;44.516;2023-06-14T00:32:44;22.60;60.50
34989;DHT22;21192;40.182;44.516;2023-06-14T00:35:10;22.60;60.40
34989;DHT22;21192;40.182;44.516;2023-06-14T00:37:36;22.60;60.40
34989;DHT22;21192;40.182;44.516;2023-06-14T00:40:02;22.60;60.40
34989;DHT22;21192;40.182;44.516;2023-06-14T00:42:30;22.50;60.40
34989;DHT22;21192;40.182;44.516;2023-06-14T00:44:56;22.50;60.60
34989;DHT22;21192;40.182;44.516;2023-06-14T00:47:23;22.50;60.50
34989;DHT22;21192;40.182;44.516;2023-06-14T00:49:50;22.50;60.80
34989;DHT22;21192;40.182;44.516;2023-06-14T00:52:19;22.50;61.40
34989;DHT22;21192;40.182;44.516;2023-06-14T00:54:46;22.40;63.30
34989;DHT22;21192;40.182;44.516;2023-06-14T00:57:12;22.30;66.00
34989;DHT22;21192;40.182;44.516;2023-06-14T00:59:43;22.20;69.40
34989;DHT22;21192;40.182;44.516;2023-06-14T01:02:09;22.10;71.60
34989;DHT22;21192;40.182;44.516;2023-06-14T01:04:36;22.10;72.30
34989;DHT22;21192;40.182;44.516;2023-06-14T01:15:03;22.20;73.70
34989;DHT22;21192;40.182;44.516;2023-06-14T01:17:30;22.30;73.80
34989;DHT22;21192;40.182;44.516;2023-06-14T01:20:01;22.30;74.00
34989;DHT22;21192;40.182;44.516;2023-06-14T01:22:28;22.30;74.00
34989;DHT22;21192;40.182;44.516;2023-06-14T01:24:54;22.30;74.20
34989;DHT22;21192;40.182;44.516;2023-06-14T01:27:24;22.30;74.20
34989;DHT22;21192;40.182;44.516;2023-06-14T01:29:55;22.30;73.30
34989;DHT22;21192;40.182;44.516;2023-06-14T01:32:26;22.20;72.70
34989;DHT22;21192;40.182;44.516;2023-06-14T01:34:53;22.20;72.40
34989;DHT22;21192;40.182;44.516;2023-06-14T01:37:20;22.20;71.80
34989;DHT22;21192;40.182;44.516;2023-06-14T01:39:48;22.10;70.60
34989;DHT22;21192;40.182;44.516;2023-06-14T01:42:16;22.10;69.70
34989;DHT22;21192;40.182;44.516;2023-06-14T01:44:43;22.00;69.20
34989;DHT22;21192;40.182;44.516;2023-06-14T01:47:09;21.90;68.80
34989;DHT22;21192;40.182;44.516;2023-06-14T01:49:36;21.90;68.80
34989;DHT22;21192;40.182;44.516;2023-06-14T01:52:04;21.90;69.20
34989;DHT22;21192;40.182;44.516;2023-06-14T01:54:29;21.80;69.30
34989;DHT22;21192;40.182;44.516;2023-06-14T01:56:56;21.80;68.90
34989;DHT22;21192;40.182;44.516;2023-06-14T01:59:22;21.70;69.20
34989;DHT22;21192;40.182;44.516;2023-06-14T02:01:48;21.70;69.80
34989;DHT22;21192;40.182;44.516;2023-06-14T02:04:14;21.70;70.40
34989;DHT22;21192;40.182;44.516;2023-06-14T02:06:40;21.70;70.70
34989;DHT22;21192;40.182;44.516;2023-06-14T02:09:05;21.80;70.70
34989;DHT22;21192;40.182;44.516;2023-06-14T02:11:31;21.90;70.30
34989;DHT22;21192;40.182;44.516;2023-06-14T02:13:57;21.90;70.00
34989;DHT22;21192;40.182;44.516;2023-06-14T02:16:25;21.90;70.60
34989;DHT22;21192;40.182;44.516;2023-06-14T02:18:53;21.90;72.40
34989;DHT22;21192;40.182;44.516;2023-06-14T02:21:19;22.00;73.80
34989;DHT22;21192;40.182;44.516;2023-06-14T02:23:45;22.00;71.90
34989;DHT22;21192;40.182;44.516;2023-06-14T02:26:11;21.90;70.90
34989;DHT22;21192;40.182;44.516;2023-06-14T02:28:37;21.80;70.50
34989;DHT22;21192;40.182;44.516;2023-06-14T02:31:03;21.80;69.60
34989;DHT22;21192;40.182;44.516;2023-06-14T02:33:29;21.70;69.70
34989;DHT22;21192;40.182;44.516;2023-06-14T02:35:54;21.70;69.40
34989;DHT22;21192;40.182;44.516;2023-06-14T02:38:21;21.60;70.00
34989;DHT22;21192;40.182;44.516;2023-06-14T02:40:48;21.60;70.30
34989;DHT22;21192;40.182;44.516;2023-06-14T02:43:13;21.50;71.30
34989;DHT22;21192;40.182;44.516;2023-06-14T02:45:40;21.50;71.20
34989;DHT22;21192;40.182;44.516;2023-06-14T02:48:06;21.60;71.10
34989;DHT22;21192;40.182;44.516;2023-06-14T02:50:32;21.80;71.10
34989;DHT22;21192;40.182;44.516;2023-06-14T02:52:57;21.90;71.70
34989;DHT22;21192;40.182;44.516;2023-06-14T02:55:23;21.90;72.50
34989;DHT22;21192;40.182;44.516;2023-06-14T02:57:50;22.00;72.90
34989;DHT22;21192;40.182;44.516;2023-06-14T03:00:16;22.10;73.10
34989;DHT22;21192;40.182;44.516;2023-06-14T03:02:42;22.20;73.60
34989;DHT22;21192;40.182;44.516;2023-06-14T03:05:08;22.10;73.90
34989;DHT22;21192;40.182;44.516;2023-06-14T03:07:35;22.10;74.40
34989;DHT22;21192;40.182;44.516;2023-06-14T03:10:09;22.20;74.90
34989;DHT22;21192;40.182;44.516;2023-06-14T03:12:35;22.10;75.60
34989;DHT22;21192;40.182;44.516;2023-06-14T03:15:02;22.10;76.10
34989;DHT22;21192;40.182;44.516;2023-06-14T03:17:28;22.10;76.90
34989;DHT22;21192;40.182;44.516;2023-06-14T03:19:55;21.90;78.50
34989;DHT22;21192;40.182;44.516;2023-06-14T03:22:21;21.90;79.20
34989;DHT22;21192;40.182;44.516;2023-06-14T03:24:47;22.00;79.70
34989;DHT22;21192;40.182;44.516;2023-06-14T03:27:13;22.00;80.20
34989;DHT22;21192;40.182;44.516;2023-06-14T03:29:39;22.00;80.90
34989;DHT22;21192;40.182;44.516;2023-06-14T03:32:05;21.90;81.40
34989;DHT22;21192;40.182;44.516;2023-06-14T03:34:31;22.00;82.00
34989;DHT22;21192;40.182;44.516;2023-06-14T03:36:57;22.00;82.70
34989;DHT22;21192;40.182;44.516;2023-06-14T03:39:23;22.10;83.70
34989;DHT22;21192;40.182;44.516;2023-06-14T03:41:49;22.10;84.40
34989;DHT22;21192;40.182;44.516;2023-06-14T03:44:16;22.20;84.70
34989;DHT22;21192;40.182;44.516;2023-06-14T03:46:44;22.10;85.20
34989;DHT22;21192;40.182;44.516;2023-06-14T03:49:11;22.00;85.50
34989;DHT22;21192;40.182;44.516;2023-06-14T03:51:37;21.90;86.50
34989;DHT22;21192;40.182;44.516;2023-06-14T03:54:03;21.80;87.00
34989;DHT22;21192;40.182;44.516;2023-06-14T03:56:29;21.80;86.50
34989;DHT22;21192;40.182;44.516;2023-06-14T03:58:55;21.70;86.00
34989;DHT22;21192;40.182;44.516;2023-06-14T04:01:21;21.60;83.70
34989;DHT22;21192;40.182;44.516;2023-06-14T04:03:52;21.60;81.00
34989;DHT22;21192;40.182;44.516;2023-06-14T04:06:18;21.70;79.20
34989;DHT22;21192;40.182;44.516;2023-06-14T04:08:45;21.70;77.80
34989;DHT22;21192;40.182;44.516;2023-06-14T04:11:11;21.80;77.30
34989;DHT22;21192;40.182;44.516;2023-06-14T04:13:37;22.00;77.60
34989;DHT22;21192;40.182;44.516;2023-06-14T04:16:04;22.10;78.60
34989;DHT22;21192;40.182;44.516;2023-06-14T04:18:30;22.10;81.60
34989;DHT22;21192;40.182;44.516;2023-06-14T04:20:56;22.10;85.30
34989;DHT22;21192;40.182;44.516;2023-06-14T04:23:22;22.10;85.70
34989;DHT22;21192;40.182;44.516;2023-06-14T04:25:48;22.20;86.10
34989;DHT22;21192;40.182;44.516;2023-06-14T04:28:15;22.10;86.80
34989;DHT22;21192;40.182;44.516;2023-06-14T04:30:44;22.10;89.20
34989;DHT22;21192;40.182;44.516;2023-06-14T04:33:10;22.10;90.50
34989;DHT22;21192;40.182;44.516;2023-06-14T04:35:36;21.90;91.70
34989;DHT22;21192;40.182;44.516;2023-06-14T04:38:05;21.70;93.30
34989;DHT22;21192;40.182;44.516;2023-06-14T04:40:35;21.50;95.20
34989;DHT22;21192;40.182;44.516;2023-06-14T04:43:08;21.50;95.80
34989;DHT22;21192;40.182;44.516;2023-06-14T04:45:36;21.50;96.90
34989;DHT22;21192;40.182;44.516;2023-06-14T04:48:02;21.30;98.40
34989;DHT22;21192;40.182;44.516;2023-06-14T04:50:28;21.20;99.50
34989;DHT22;21192;40.182;44.516;2023-06-14T04:52:55;21.10;99.90
34989;DHT22;21192;40.182;44.516;2023-06-14T04:55:22;21.10;99.90
34989;DHT22;21192;40.182;44.516;2023-06-14T04:57:48;21.20;99.90
34989;DHT22;21192;40.182;44.516;2023-06-14T05:00:14;21.30;99.90
34989;DHT22;21192;40.182;44.516;2023-06-14T05:02:40;21.40;99.90
34989;DHT22;21192;40.182;44.516;2023-06-14T05:05:06;21.50;99.90
34989;DHT22;21192;40.182;44.516;2023-06-14T05:07:32;21.50;99.90
34989;DHT22;21192;40.182;44.516;2023-06-14T05:09:59;21.60;99.90
34989;DHT22;21192;40.182;44.516;2023-06-14T05:12:25;21.60;99.90
34989;DHT22;21192;40.182;44.516;2023-06-14T05:14:51;21.60;99.90
34989;DHT22;21192;40.182;44.516;2023-06-14T05:17:17;21.60;99.90
34989;DHT22;21192;40.182;44.516;2023-06-14T05:19:43;21.70;99.90
34989;DHT22;21192;40.182;44.516;2023-06-14T05:22:09;21.70;99.90
34989;DHT22;21192;40.182;44.516;2023-06-14T05:24:35;21.70;99.90
34989;DHT22;21192;40.182;44.516;2023-06-14T05:27:01;21.70;99.90
34989;DHT22;21192;40.182;44.516;2023-06-14T05:29:27;21.70;99.90
34989;DHT22;21192;40.182;44.516;2023-06-14T05:31:53;21.60;99.90
34989;DHT22;21192;40.182;44.516;2023-06-14T05:34:19;21.60;99.90
34989;DHT22;21192;40.182;44.516;2023-06-14T05:36:45;21.50;99.90
34989;DHT22;21192;40.182;44.516;2023-06-14T05:39:11;21.30;99.90
34989;DHT22;21192;40.182;44.516;2023-06-14T05:41:36;21.20;99.90
34989;DHT22;21192;40.182;44.516;2023-06-14T05:44:02;21.10;99.90
34989;DHT22;21192;40.182;44.516;2023-06-14T05:46:28;21.00;99.90
34989;DHT22;21192;40.182;44.516;2023-06-14T05:48:55;21.00;99.90
34989;DHT22;21192;40.182;44.516;2023-06-14T05:51:21;21.00;99.90
34989;DHT22;21192;40.182;44.516;2023-06-14T05:53:48;21.10;99.90
34989;DHT22;21192;40.182;44.516;2023-06-14T05:56:15;21.10;99.70
34989;DHT22;21192;40.182;44.516;2023-06-14T05:58:41;21.10;99.30
34989;DHT22;21192;40.182;44.516;2023-06-14T06:01:07;21.10;99.20
34989;DHT22;21192;40.182;44.516;2023-06-14T06:03:33;21.10;98.80
34989;DHT22;21192;40.182;44.516;2023-06-14T06:05:59;21.10;99.00
34989;DHT22;21192;40.182;44.516;2023-06-14T06:08:26;21.20;99.80
34989;DHT22;21192;40.182;44.516;2023-06-14T06:10:52;21.20;99.90
34989;DHT22;21192;40.182;44.516;2023-06-14T06:13:19;21.10;99.90
34989;DHT22;21192;40.182;44.516;2023-06-14T06:15:45;20.90;99.90
34989;DHT22;21192;40.182;44.516;2023-06-14T06:18:11;20.60;99.90
34989;DHT22;21192;40.182;44.516;2023-06-14T06:20:37;20.50;99.90
34989;DHT22;21192;40.182;44.516;2023-06-14T06:23:03;20.40;99.90
34989;DHT22;21192;40.182;44.516;2023-06-14T06:25:29;20.40;99.90
34989;DHT22;21192;40.182;44.516;2023-06-14T06:27:57;20.40;99.90
34989;DHT22;21192;40.182;44.516;2023-06-14T06:30:24;20.30;99.90
34989;DHT22;21192;40.182;44.516;2023-06-14T06:32:50;20.20;99.90
34989;DHT22;21192;40.182;44.516;2023-06-14T06:35:16;20.10;99.90
34989;DHT22;21192;40.182;44.516;2023-06-14T06:37:43;20.10;99.90
34989;DHT22;21192;40.182;44.516;2023-06-14T06:40:09;20.00;99.90
34989;DHT22;21192;40.182;44.516;2023-06-14T06:42:35;20.00;99.90
34989;DHT22;21192;40.182;44.516;2023-06-14T06:45:01;20.00;99.90
34989;DHT22;21192;40.182;44.516;2023-06-14T06:47:27;20.00;99.90
34989;DHT22;21192;40.182;44.516;2023-06-14T06:49:53;20.00;99.90
34989;DHT22;21192;40.182;44.516;2023-06-14T06:52:19;20.20;99.90
34989;DHT22;21192;40.182;44.516;2023-06-14T06:54:45;20.20;99.90
34989;DHT22;21192;40.182;44.516;2023-06-14T06:57:10;20.40;99.90
34989;DHT22;21192;40.182;44.516;2023-06-14T06:59:37;20.50;99.90
34989;DHT22;21192;40.182;44.516;2023-06-14T07:02:03;20.70;99.90
34989;DHT22;21192;40.182;44.516;2023-06-14T07:04:29;21.00;99.90
34989;DHT22;21192;40.182;44.516;2023-06-14T07:06:55;21.30;99.90
34989;DHT22;21192;40.182;44.516;2023-06-14T07:09:21;21.60;99.90
34989;DHT22;21192;40.182;44.516;2023-06-14T07:11:48;22.00;99.00
34989;DHT22;21192;40.182;44.516;2023-06-14T07:14:14;22.30;97.30
34989;DHT22;21192;40.182;44.516;2023-06-14T07:16:40;22.60;95.60
34989;DHT22;21192;40.182;44.516;2023-06-14T07:19:06;22.80;94.40
34989;DHT22;21192;40.182;44.516;2023-06-14T07:21:34;23.10;93.30
34989;DHT22;21192;40.182;44.516;2023-06-14T07:24:00;23.20;91.70
34989;DHT22;21192;40.182;44.516;2023-06-14T07:26:25;23.20;90.70
34989;DHT22;21192;40.182;44.516;2023-06-14T07:28:54;23.20;89.30
34989;DHT22;21192;40.182;44.516;2023-06-14T07:31:20;23.20;87.80
34989;DHT22;21192;40.182;44.516;2023-06-14T07:33:47;23.20;86.50
34989;DHT22;21192;40.182;44.516;2023-06-14T07:36:12;23.10;85.60
34989;DHT22;21192;40.182;44.516;2023-06-14T07:38:38;23.10;84.60
34989;DHT22;21192;40.182;44.516;2023-06-14T07:41:06;23.00;83.00
34989;DHT22;21192;40.182;44.516;2023-06-14T07:43:31;23.00;82.50
34989;DHT22;21192;40.182;44.516;2023-06-14T07:45:57;23.00;82.30
34989;DHT22;21192;40.182;44.516;2023-06-14T07:48:23;23.00;81.60
34989;DHT22;21192;40.182;44.516;2023-06-14T07:50:49;23.00;81.10
34989;DHT22;21192;40.182;44.516;2023-06-14T07:53:15;23.00;81.50
34989;DHT22;21192;40.182;44.516;2023-06-14T07:55:41;23.00;80.30
34989;DHT22;21192;40.182;44.516;2023-06-14T07:58:08;23.00;80.10
34989;DHT22;21192;40.182;44.516;2023-06-14T08:00:34;23.00;79.40
34989;DHT22;21192;40.182;44.516;2023-06-14T08:03:00;23.00;78.90
34989;DHT22;21192;40.182;44.516;2023-06-14T08:05:27;22.90;78.50
34989;DHT22;21192;40.182;44.516;2023-06-14T08:07:53;22.90;78.00
34989;DHT22;21192;40.182;44.516;2023-06-14T08:10:20;22.90;77.10
34989;DHT22;21192;40.182;44.516;2023-06-14T08:12:46;22.90;76.60
34989;DHT22;21192;40.182;44.516;2023-06-14T08:15:12;23.00;75.80
34989;DHT22;21192;40.182;44.516;2023-06-14T08:17:37;23.20;75.70
34989;DHT22;21192;40.182;44.516;2023-06-14T08:20:04;23.30;75.50
34989;DHT22;21192;40.182;44.516;2023-06-14T08:22:31;23.50;74.60
34989;DHT22;21192;40.182;44.516;2023-06-14T08:25:02;23.70;73.80
34989;DHT22;21192;40.182;44.516;2023-06-14T08:27:29;23.80;72.60
34989;DHT22;21192;40.182;44.516;2023-06-14T08:29:56;24.00;71.30
34989;DHT22;21192;40.182;44.516;2023-06-14T08:32:22;24.00;70.80
34989;DHT22;21192;40.182;44.516;2023-06-14T08:34:48;24.10;69.50
34989;DHT22;21192;40.182;44.516;2023-06-14T08:37:14;24.20;69.80
34989;DHT22;21192;40.182;44.516;2023-06-14T08:39:40;24.30;69.00
34989;DHT22;21192;40.182;44.516;2023-06-14T08:42:07;24.40;68.70
34989;DHT22;21192;40.182;44.516;2023-06-14T08:44:34;24.60;68.30
34989;DHT22;21192;40.182;44.516;2023-06-14T08:47:00;24.70;67.70
34989;DHT22;21192;40.182;44.516;2023-06-14T08:49:26;24.70;67.00
34989;DHT22;21192;40.182;44.516;2023-06-14T08:52:03;24.80;66.70
34989;DHT22;21192;40.182;44.516;2023-06-14T08:54:31;24.90;65.80
34989;DHT22;21192;40.182;44.516;2023-06-14T08:57:00;25.00;64.90
34989;DHT22;21192;40.182;44.516;2023-06-14T08:59:26;25.10;64.30
34989;DHT22;21192;40.182;44.516;2023-06-14T09:01:53;25.20;62.20
34989;DHT22;21192;40.182;44.516;2023-06-14T09:04:21;25.30;61.10
34989;DHT22;21192;40.182;44.516;2023-06-14T09:06:56;25.40;59.90
34989;DHT22;21192;40.182;44.516;2023-06-14T09:09:22;25.50;59.30
34989;DHT22;21192;40.182;44.516;2023-06-14T09:11:52;25.60;58.30
34989;DHT22;21192;40.182;44.516;2023-06-14T09:14:18;25.60;58.00
34989;DHT22;21192;40.182;44.516;2023-06-14T09:16:45;25.70;58.30
34989;DHT22;21192;40.182;44.516;2023-06-14T09:19:26;25.80;57.70
34989;DHT22;21192;40.182;44.516;2023-06-14T09:21:52;25.90;57.40
34989;DHT22;21192;40.182;44.516;2023-06-14T09:24:19;25.90;55.80
34989;DHT22;21192;40.182;44.516;2023-06-14T09:26:47;26.00;54.90
34989;DHT22;21192;40.182;44.516;2023-06-14T09:29:13;26.10;54.70
34989;DHT22;21192;40.182;44.516;2023-06-14T09:31:39;26.20;54.60
34989;DHT22;21192;40.182;44.516;2023-06-14T09:34:05;26.40;55.90
34989;DHT22;21192;40.182;44.516;2023-06-14T09:36:32;26.50;57.00
34989;DHT22;21192;40.182;44.516;2023-06-14T09:39:02;26.60;57.00
34989;DHT22;21192;40.182;44.516;2023-06-14T09:41:41;26.70;56.40
34989;DHT22;21192;40.182;44.516;2023-06-14T09:44:09;26.80;55.80
34989;DHT22;21192;40.182;44.516;2023-06-14T09:46:36;26.90;55.50
34989;DHT22;21192;40.182;44.516;2023-06-14T09:49:03;27.00;54.40
34989;DHT22;21192;40.182;44.516;2023-06-14T09:51:30;27.00;53.70
34989;DHT22;21192;40.182;44.516;2023-06-14T09:54:00;27.10;53.70
34989;DHT22;21192;40.182;44.516;2023-06-14T09:56:42;27.20;53.50
34989;DHT22;21192;40.182;44.516;2023-06-14T09:59:10;27.20;53.20
34989;DHT22;21192;40.182;44.516;2023-06-14T10:01:42;27.20;53.10
34989;DHT22;21192;40.182;44.516;2023-06-14T10:04:09;27.30;52.70
34989;DHT22;21192;40.182;44.516;2023-06-14T10:06:43;27.30;51.00
34989;DHT22;21192;40.182;44.516;2023-06-14T10:09:11;27.40;49.10
34989;DHT22;21192;40.182;44.516;2023-06-14T10:11:38;27.50;48.50
34989;DHT22;21192;40.182;44.516;2023-06-14T10:14:12;27.60;48.60
34989;DHT22;21192;40.182;44.516;2023-06-14T10:17:10;27.70;48.10
34989;DHT22;21192;40.182;44.516;2023-06-14T10:20:16;27.80;48.00
34989;DHT22;21192;40.182;44.516;2023-06-14T10:23:05;27.80;47.60
34989;DHT22;21192;40.182;44.516;2023-06-14T10:25:33;28.00;47.30
34989;DHT22;21192;40.182;44.516;2023-06-14T10:28:20;28.10;46.70
34989;DHT22;21192;40.182;44.516;2023-06-14T10:31:17;28.30;46.30
34989;DHT22;21192;40.182;44.516;2023-06-14T10:39:17;28.60;45.50
34989;DHT22;21192;40.182;44.516;2023-06-14T10:41:52;28.60;45.40
34989;DHT22;21192;40.182;44.516;2023-06-14T10:46:54;28.60;45.30
34989;DHT22;21192;40.182;44.516;2023-06-14T10:49:22;28.60;45.20
34989;DHT22;21192;40.182;44.516;2023-06-14T10:52:04;28.60;45.70
34989;DHT22;21192;40.182;44.516;2023-06-14T10:54:32;28.60;45.80
34989;DHT22;21192;40.182;44.516;2023-06-14T10:56:58;28.70;46.30
34989;DHT22;21192;40.182;44.516;2023-06-14T10:59:24;28.70;46.90
34989;DHT22;21192;40.182;44.516;2023-06-14T11:04:54;28.80;46.90
34989;DHT22;21192;40.182;44.516;2023-06-14T11:07:44;28.80;47.50
34989;DHT22;21192;40.182;44.516;2023-06-14T11:10:39;28.60;48.80
34989;DHT22;21192;40.182;44.516;2023-06-14T11:13:07;28.50;49.70
34989;DHT22;21192;40.182;44.516;2023-06-14T11:15:34;28.40;49.50
34989;DHT22;21192;40.182;44.516;2023-06-14T11:18:08;28.40;50.00
34989;DHT22;21192;40.182;44.516;2023-06-14T11:20:37;28.40;50.40
34989;DHT22;21192;40.182;44.516;2023-06-14T11:23:05;28.40;51.30
34989;DHT22;21192;40.182;44.516;2023-06-14T11:25:32;28.50;51.60
34989;DHT22;21192;40.182;44.516;2023-06-14T11:27:58;28.40;51.30
34989;DHT22;21192;40.182;44.516;2023-06-14T11:30:26;28.40;51.00
34989;DHT22;21192;40.182;44.516;2023-06-14T11:32:53;28.40;51.50
34989;DHT22;21192;40.182;44.516;2023-06-14T11:35:22;28.40;52.50
34989;DHT22;21192;40.182;44.516;2023-06-14T11:37:55;28.50;53.10
34989;DHT22;21192;40.182;44.516;2023-06-14T11:40:24;28.50;53.30
34989;DHT22;21192;40.182;44.516;2023-06-14T11:42:53;28.50;53.20
34989;DHT22;21192;40.182;44.516;2023-06-14T11:45:23;28.50;51.70
34989;DHT22;21192;40.182;44.516;2023-06-14T11:47:50;28.50;52.20
34989;DHT22;21192;40.182;44.516;2023-06-14T11:50:16;28.60;52.80
34989;DHT22;21192;40.182;44.516;2023-06-14T11:52:43;28.60;53.00
34989;DHT22;21192;40.182;44.516;2023-06-14T11:55:09;28.60;53.40
34989;DHT22;21192;40.182;44.516;2023-06-14T11:57:36;28.60;52.70
34989;DHT22;21192;40.182;44.516;2023-06-14T12:00:06;28.70;52.40
34989;DHT22;21192;40.182;44.516;2023-06-14T12:02:42;28.80;52.00
34989;DHT22;21192;40.182;44.516;2023-06-14T12:05:09;28.80;51.60
34989;DHT22;21192;40.182;44.516;2023-06-14T12:07:39;28.80;51.10
34989;DHT22;21192;40.182;44.516;2023-06-14T12:10:08;28.80;51.20
34989;DHT22;21192;40.182;44.516;2023-06-14T12:12:39;28.90;51.80
34989;DHT22;21192;40.182;44.516;2023-06-14T12:15:08;28.90;51.60
34989;DHT22;21192;40.182;44.516;2023-06-14T12:17:38;28.90;51.10
34989;DHT22;21192;40.182;44.516;2023-06-14T12:20:09;29.00;50.90
34989;DHT22;21192;40.182;44.516;2023-06-14T12:22:59;29.10;50.90
34989;DHT22;21192;40.182;44.516;2023-06-14T12:25:34;29.10;50.90
34989;DHT22;21192;40.182;44.516;2023-06-14T12:28:06;29.00;50.90
34989;DHT22;21192;40.182;44.516;2023-06-14T12:30:32;29.00;51.00
34989;DHT22;21192;40.182;44.516;2023-06-14T12:32:58;29.00;51.00
34989;DHT22;21192;40.182;44.516;2023-06-14T12:35:24;28.90;51.00
34989;DHT22;21192;40.182;44.516;2023-06-14T12:37:50;28.90;51.10
34989;DHT22;21192;40.182;44.516;2023-06-14T12:40:16;28.80;51.50
34989;DHT22;21192;40.182;44.516;2023-06-14T12:42:42;28.80;51.90
34989;DHT22;21192;40.182;44.516;2023-06-14T12:45:08;28.80;52.00
34989;DHT22;21192;40.182;44.516;2023-06-14T12:47:34;28.80;52.00
34989;DHT22;21192;40.182;44.516;2023-06-14T12:50:01;28.60;51.80
34989;DHT22;21192;40.182;44.516;2023-06-14T12:52:27;28.60;51.70
34989;DHT22;21192;40.182;44.516;2023-06-14T12:54:53;28.50;51.50
34989;DHT22;21192;40.182;44.516;2023-06-14T12:57:18;28.60;51.40
34989;DHT22;21192;40.182;44.516;2023-06-14T12:59:44;28.60;51.20
34989;DHT22;21192;40.182;44.516;2023-06-14T13:02:16;28.50;51.30
34989;DHT22;21192;40.182;44.516;2023-06-14T13:04:43;28.50;51.40
34989;DHT22;21192;40.182;44.516;2023-06-14T13:07:09;28.40;51.30
34989;DHT22;21192;40.182;44.516;2023-06-14T13:09:37;28.40;51.10
34989;DHT22;21192;40.182;44.516;2023-06-14T13:12:03;28.30;50.60
34989;DHT22;21192;40.182;44.516;2023-06-14T13:14:29;28.30;50.30
34989;DHT22;21192;40.182;44.516;2023-06-14T13:16:55;28.30;50.10
34989;DHT22;21192;40.182;44.516;2023-06-14T13:19:21;28.20;49.90
34989;DHT22;21192;40.182;44.516;2023-06-14T13:21:47;28.20;50.20
34989;DHT22;21192;40.182;44.516;2023-06-14T13:24:13;28.20;50.50
34989;DHT22;21192;40.182;44.516;2023-06-14T13:26:40;28.20;50.50
34989;DHT22;21192;40.182;44.516;2023-06-14T13:29:06;28.20;50.60
34989;DHT22;21192;40.182;44.516;2023-06-14T13:31:31;28.10;50.70
34989;DHT22;21192;40.182;44.516;2023-06-14T13:33:57;28.10;50.80
34989;DHT22;21192;40.182;44.516;2023-06-14T13:36:23;28.00;51.30
34989;DHT22;21192;40.182;44.516;2023-06-14T13:38:49;28.00;51.90
34989;DHT22;21192;40.182;44.516;2023-06-14T13:41:17;27.90;52.20
34989;DHT22;21192;40.182;44.516;2023-06-14T13:43:43;28.00;52.40
34989;DHT22;21192;40.182;44.516;2023-06-14T13:46:08;27.90;52.60
34989;DHT22;21192;40.182;44.516;2023-06-14T13:48:34;27.90;52.90
34989;DHT22;21192;40.182;44.516;2023-06-14T13:51:00;27.90;53.00
34989;DHT22;21192;40.182;44.516;2023-06-14T13:53:26;27.90;53.40
34989;DHT22;21192;40.182;44.516;2023-06-14T13:55:52;27.90;53.70
34989;DHT22;21192;40.182;44.516;2023-06-14T13:58:19;27.90;54.00
34989;DHT22;21192;40.182;44.516;2023-06-14T14:00:45;27.90;54.20
34989;DHT22;21192;40.182;44.516;2023-06-14T14:03:11;27.90;54.20
34989;DHT22;21192;40.182;44.516;2023-06-14T14:05:36;27.90;54.30
34989;DHT22;21192;40.182;44.516;2023-06-14T14:08:03;27.90;54.40
34989;DHT22;21192;40.182;44.516;2023-06-14T14:10:29;27.90;54.50
34989;DHT22;21192;40.182;44.516;2023-06-14T14:12:55;27.90;54.50
34989;DHT22;21192;40.182;44.516;2023-06-14T14:15:22;27.90;54.60
34989;DHT22;21192;40.182;44.516;2023-06-14T14:17:48;27.90;54.80
34989;DHT22;21192;40.182;44.516;2023-06-14T14:20:14;27.80;55.10
34989;DHT22;21192;40.182;44.516;2023-06-14T14:22:42;27.70;55.70
34989;DHT22;21192;40.182;44.516;2023-06-14T14:25:09;27.60;56.10
34989;DHT22;21192;40.182;44.516;2023-06-14T14:27:35;27.60;56.60
34989;DHT22;21192;40.182;44.516;2023-06-14T14:30:01;27.60;56.80
34989;DHT22;21192;40.182;44.516;2023-06-14T14:32:27;27.70;56.90
34989;DHT22;21192;40.182;44.516;2023-06-14T14:34:54;27.70;56.90
34989;DHT22;21192;40.182;44.516;2023-06-14T14:37:20;27.70;57.00
34989;DHT22;21192;40.182;44.516;2023-06-14T14:39:46;27.70;57.10
34989;DHT22;21192;40.182;44.516;2023-06-14T14:42:12;27.70;57.20
34989;DHT22;21192;40.182;44.516;2023-06-14T14:44:39;27.60;57.20
34989;DHT22;21192;40.182;44.516;2023-06-14T14:47:05;27.50;57.50
34989;DHT22;21192;40.182;44.516;2023-06-14T14:49:32;27.50;58.10
34989;DHT22;21192;40.182;44.516;2023-06-14T14:51:58;27.40;58.90
34989;DHT22;21192;40.182;44.516;2023-06-14T14:54:24;27.30;59.70
34989;DHT22;21192;40.182;44.516;2023-06-14T14:56:51;27.30;60.90
34989;DHT22;21192;40.182;44.516;2023-06-14T14:59:17;27.20;62.40
34989;DHT22;21192;40.182;44.516;2023-06-14T15:01:44;27.10;63.70
34989;DHT22;21192;40.182;44.516;2023-06-14T15:04:11;27.10;64.90
34989;DHT22;21192;40.182;44.516;2023-06-14T15:06:37;27.10;67.10
34989;DHT22;21192;40.182;44.516;2023-06-14T15:09:05;27.00;69.10
34989;DHT22;21192;40.182;44.516;2023-06-14T15:11:33;26.80;70.90
34989;DHT22;21192;40.182;44.516;2023-06-14T15:13:59;26.70;71.50
34989;DHT22;21192;40.182;44.516;2023-06-14T15:16:25;26.60;73.70
34989;DHT22;21192;40.182;44.516;2023-06-14T15:18:51;26.50;73.60
34989;DHT22;21192;40.182;44.516;2023-06-14T15:21:16;26.40;74.70
34989;DHT22;21192;40.182;44.516;2023-06-14T15:23:45;26.40;75.60
34989;DHT22;21192;40.182;44.516;2023-06-14T15:26:13;26.40;76.60
34989;DHT22;21192;40.182;44.516;2023-06-14T15:28:39;26.40;77.70
34989;DHT22;21192;40.182;44.516;2023-06-14T15:31:05;26.40;78.60
34989;DHT22;21192;40.182;44.516;2023-06-14T15:33:30;26.40;79.40
34989;DHT22;21192;40.182;44.516;2023-06-14T15:35:57;26.40;80.00